• Join FlightAware (Why Join?)
  • Login
  • US Flag 
06:29PM EDT


 

Airport Tracker/Info


-or-


 

Live Flight TrackerFlight Track Log ✈ SKW5534 ✈ 03-Nov-2013 ✈ KMSO - KDEN

Flight Track Log - Related Links

Times and Time Zones

All times are in EST time to prevent confusion due to time zone crossing. See the SKW5534 flight status page for this flight to view local times or setup timezone preferences in your user account.

Time Position Orientation Groundspeed Altitude Reporting Facility
EST Latitude Longitude Course Direction KTS MPH feet Rate Location/Type
09:15AM 46.9494 -114.1522 170° South 173 199 5,400  Level Salt Lake Center
09:16AM 46.9878 -114.2147 312° West 202 232 8,100 2,400 Climbing Salt Lake Center
09:17AM 47.0039 -114.2936 287° West 226 260 10,300 1,980 Climbing Salt Lake Center
09:18AM 46.6138 -113.6122 90° East  Level Estimated
09:18AM 46.9361 -114.3039 186° South 288 331 12,200  Level Salt Lake Center
09:19AM 46.5378 -113.4935 132° Southeast  Level Estimated
09:19AM 46.8831 -114.2039 128° Southeast 315 362 14,300  Level Salt Lake Center
09:20AM 46.4618 -113.3751 129° Southeast  Level Estimated
09:21AM 46.3520 -113.3471 170° South  Level FlightAware Approximate
09:21AM 46.8189 -114.0989 132° Southeast 328 377 16,500  Level Salt Lake Center
09:22AM 46.7575 -113.9961 131° Southeast 338 389 18,600 1,860 Climbing Salt Lake Center
09:23AM 46.7047 -113.9069 131° Southeast 338 389 20,300 1,500 Climbing Salt Lake Center
09:24AM 46.6433 -113.8047 131° Southeast 336 387 21,700 1,140 Climbing Salt Lake Center
09:25AM 46.5789 -113.6944 130° Southeast 357 411 22,700 960 Climbing Salt Lake Center
09:26AM 46.5103 -113.5828 132° Southeast 370 426 23,700 960 Climbing Salt Lake Center
09:27AM 46.4419 -113.4694 131° Southeast 375 432 24,700 1,080 Climbing Salt Lake Center
09:28AM 46.3592 -113.3306 131° Southeast 380 437 25,900 1,080 Climbing Salt Lake Center
09:29AM 46.2903 -113.2161 131° Southeast 384 442 26,900 840 Climbing Salt Lake Center
09:30AM 46.2194 -113.0975 131° Southeast 383 441 27,600 720 Climbing Salt Lake Center
09:31AM 46.1431 -112.9783 133° Southeast 395 455 28,400 720 Climbing Salt Lake Center
09:32AM 46.0681 -112.8556 131° Southeast 400 460 29,100 540 Climbing Salt Lake Center
09:33AM 45.9933 -112.7347 132° Southeast 398 458 29,600 480 Climbing Salt Lake Center
09:34AM 45.9175 -112.6108 131° Southeast 404 465 30,100 480 Climbing Salt Lake Center
09:35AM 45.8383 -112.4869 133° Southeast 412 474 30,600 480 Climbing Salt Lake Center
09:36AM 45.7661 -112.3706 132° Southeast 417 480 31,100 480 Climbing Salt Lake Center
09:37AM 45.6867 -112.2450 132° Southeast 419 482 31,600 480 Climbing Salt Lake Center
09:38AM 45.6067 -112.1183 132° Southeast 422 486 32,100 540 Climbing Salt Lake Center
09:39AM 45.5261 -111.9928 132° Southeast 421 484 32,700 420 Climbing Salt Lake Center
09:40AM 45.4450 -111.8664 132° Southeast 425 489 33,000 120 Climbing Salt Lake Center
09:41AM 45.3636 -111.7378 132° Southeast 430 495 33,000  Level Salt Lake Center
09:42AM 45.2814 -111.6106 133° Southeast 431 496 33,000  Level Salt Lake Center
09:43AM 45.1981 -111.4817 133° Southeast 435 501 33,000  Level Salt Lake Center
09:44AM 45.1147 -111.3528 132° Southeast 436 502 33,000  Level Salt Lake Center
09:45AM 45.0281 -111.2231 133° Southeast 438 504 33,000  Level Salt Lake Center
09:46AM 44.9483 -111.0997 132° Southeast 441 507 33,000  Level Salt Lake Center
09:47AM 44.8669 -110.9769 133° Southeast 444 511 33,000  Level Salt Lake Center
09:48AM 44.7858 -110.8553 133° Southeast 442 509 33,000  Level Salt Lake Center
09:49AM 44.6928 -110.7167 133° Southeast 436 502 33,000  Level Salt Lake Center
09:50AM 44.6133 -110.5975 133° Southeast 432 497 33,000  Level Salt Lake Center
09:51AM 44.5336 -110.4764 133° Southeast 440 506 33,000  Level Salt Lake Center
09:52AM 44.4408 -110.3389 133° Southeast 435 501 33,100  Climbing Salt Lake Center
09:53AM 44.3603 -110.2192 133° Southeast 440 506 33,000 -60 Descending Salt Lake Center
09:54AM 44.2811 -110.1042 134° Southeast 431 496 33,000  Level Salt Lake Center
09:55AM 44.1875 -109.9681 134° Southeast 434 499 33,000  Level Salt Lake Center
09:56AM 44.1081 -109.8506 133° Southeast 434 499 33,000  Level Salt Lake Center
09:57AM 44.0267 -109.7336 134° Southeast 437 503 33,000  Level Salt Lake Center
09:58AM 43.9317 -109.5967 134° Southeast 440 506 33,000  Level Salt Lake Center
09:59AM 43.8500 -109.4792 134° Southeast 441 507 33,000  Level Salt Lake Center
10:00AM 43.7675 -109.3650 135° Southeast 432 497 33,000  Level Salt Lake Center
10:01AM 43.6856 -109.2453 133° Southeast 432 497 33,000  Level Salt Lake Center
10:02AM 43.6025 -109.1283 134° Southeast 430 495 33,000  Level Salt Lake Center
10:03AM 43.5189 -109.0114 135° Southeast 429 494 33,000  Level Salt Lake Center
10:04AM 43.4358 -108.8944 134° Southeast 429 494 33,000  Level Salt Lake Center
10:05AM 43.3364 -108.7558 135° Southeast 425 489 33,000  Level Salt Lake Center
10:06AM 43.2531 -108.6389 134° Southeast 428 493 33,000  Level Salt Lake Center
10:07AM 43.1692 -108.5233 135° Southeast 429 494 33,000  Level Salt Lake Center
10:08AM 43.0869 -108.4081 134° Southeast 426 490 33,000  Level Salt Lake Center
10:09AM 43.0028 -108.2931 135° Southeast 429 494 33,000  Level Salt Lake Center
10:10AM 42.9231 -108.1831 135° Southeast 430 495 33,000  Level Salt Lake Center
10:11AM 42.8283 -108.0536 135° Southeast 429 494 33,000  Level Salt Lake Center
10:12AM 42.7461 -107.9428 135° Southeast 433 498 33,000  Level Salt Lake Center
10:13AM 42.6644 -107.8308 135° Southeast 435 501 33,000  Level Salt Lake Center
10:14AM 42.5667 -107.7017 136° Southeast 438 504 33,000  Level Salt Lake Center
10:15AM 42.4800 -107.5989 139° Southeast 434 499 33,000  Level Salt Lake Center
10:16AM 42.3797 -107.4783 138° Southeast 432 497 33,000  Level Salt Lake Center
10:17AM 42.2950 -107.3783 139° Southeast 426 490 33,000  Level Salt Lake Center
10:18AM 42.2081 -107.2756 139° Southeast 428 493 33,000  Level Salt Lake Center
10:20AM 42.0925 -107.1394 139° Southeast 431 496 33,000  Level Denver Center
10:21AM 42.0039 -107.0358 139° Southeast 438 504 33,000  Level Denver Center
10:22AM 41.9017 -106.9167 139° Southeast 436 502 33,000  Level Denver Center
10:23AM 41.8144 -106.8136 139° Southeast 436 502 33,000  Level Denver Center
10:24AM 41.7097 -106.6928 139° Southeast 443 510 33,000  Level Denver Center
10:25AM 41.6211 -106.5908 139° Southeast 440 506 33,000  Level Denver Center
10:26AM 41.5261 -106.4822 139° Southeast 438 504 33,000  Level Denver Center
10:27AM 41.4378 -106.3808 139° Southeast 439 505 33,000  Level Denver Center
10:28AM 41.3350 -106.2625 139° Southeast 440 506 33,000 -60 Level Denver Center
10:29AM 41.2353 -106.1503 140° Southeast 445 512 32,900 -1,020 Descending Denver Center
10:30AM 41.1419 -106.0433 139° Southeast 440 506 31,000 -1,740 Descending Denver Center
10:31AM 41.0597 -105.9508 140° Southeast 413 475 29,400 -1,740 Descending Denver Center
10:32AM 40.9753 -105.8558 140° Southeast 391 450 27,500 -1,680 Descending Denver Center
10:33AM 40.8928 -105.7644 140° Southeast 389 448 26,000 -1,500 Descending Denver Center
10:34AM 40.8114 -105.6722 139° Southeast 388 447 24,500 -1,500 Descending Denver Center
10:35AM 40.7294 -105.5803 140° Southeast 387 445 23,000 -1,620 Descending Denver Center
10:36AM 40.6342 -105.4750 140° Southeast 374 430 21,200 -1,500 Descending Denver Center
10:37AM 40.5653 -105.3681 130° Southeast 393 452 20,000 -1,260 Descending Denver Center
10:38AM 40.5081 -105.2625 125° Southeast 362 417 18,600 -1,620 Descending Denver Center
10:39AM 40.4658 -105.1428 115° Southeast 346 398 16,700 -1,500 Descending Denver Center
10:40AM 40.4367 -105.0361 110° East 318 366 15,600 -900 Descending Denver Center
10:41AM 40.4067 -104.9386 112° Southeast 274 315 14,900 -720 Descending Denver Center
10:42AM 40.3447 -104.9006 155° Southeast 251 289 14,200 -840 Descending Denver Center
10:43AM 40.2781 -104.8622 156° South 262 302 13,200 -1,260 Descending Denver Center
10:44AM 40.2100 -104.8181 154° Southeast 256 295 11,600 -1,440 Descending Denver Center
10:45AM 40.1478 -104.7708 150° Southeast 257 296 10,300 -1,380 Descending Denver Center
10:46AM 40.0825 -104.7269 153° Southeast 248 285 8,800 -1,260 Descending Denver Center
10:47AM 40.0297 -104.6956 156° South 206 237 7,800 -720 Descending Denver Center
10:48AM 39.9756 -104.6939 179° South 197 227 7,400 -840 Descending Denver Center
10:49AM 39.9236 -104.6958 182° South 177 204 6,100 -1,020 Descending Denver Center
10:50AM 39.8822 -104.6964 181° South 146 168 5,400 -720 Descending Denver Center